sensor_id;sensor_type;location;lat;lon;timestamp;temperature;humidity
54168;DHT22;68429;50.958;3.592;2023-04-24T00:02:14;9.40;99.90
54168;DHT22;68429;50.958;3.592;2023-04-24T00:04:41;9.50;99.90
54168;DHT22;68429;50.958;3.592;2023-04-24T00:07:10;9.60;99.90
54168;DHT22;68429;50.958;3.592;2023-04-24T00:09:36;9.50;99.90
54168;DHT22;68429;50.958;3.592;2023-04-24T00:12:02;9.50;99.90
54168;DHT22;68429;50.958;3.592;2023-04-24T00:14:30;9.50;99.90
54168;DHT22;68429;50.958;3.592;2023-04-24T00:16:56;9.50;99.90
54168;DHT22;68429;50.958;3.592;2023-04-24T00:19:21;9.50;99.90
54168;DHT22;68429;50.958;3.592;2023-04-24T00:21:47;9.50;99.90
54168;DHT22;68429;50.958;3.592;2023-04-24T00:24:16;9.60;99.90
54168;DHT22;68429;50.958;3.592;2023-04-24T00:26:42;9.50;99.90
54168;DHT22;68429;50.958;3.592;2023-04-24T00:29:07;9.50;99.90
54168;DHT22;68429;50.958;3.592;2023-04-24T00:31:33;9.40;99.90
54168;DHT22;68429;50.958;3.592;2023-04-24T00:34:02;9.30;99.90
54168;DHT22;68429;50.958;3.592;2023-04-24T00:36:28;9.20;99.90
54168;DHT22;68429;50.958;3.592;2023-04-24T00:38:54;9.10;99.90
54168;DHT22;68429;50.958;3.592;2023-04-24T00:41:21;9.20;99.90
54168;DHT22;68429;50.958;3.592;2023-04-24T00:43:47;9.10;99.90
54168;DHT22;68429;50.958;3.592;2023-04-24T00:46:14;9.00;99.90
54168;DHT22;68429;50.958;3.592;2023-04-24T00:48:40;8.90;99.90
54168;DHT22;68429;50.958;3.592;2023-04-24T00:51:06;8.90;99.90
54168;DHT22;68429;50.958;3.592;2023-04-24T00:53:32;8.90;99.90
54168;DHT22;68429;50.958;3.592;2023-04-24T00:55:58;8.90;99.90
54168;DHT22;68429;50.958;3.592;2023-04-24T00:58:25;8.90;99.90
54168;DHT22;68429;50.958;3.592;2023-04-24T01:00:53;8.90;99.90
54168;DHT22;68429;50.958;3.592;2023-04-24T01:03:25;8.90;99.90
54168;DHT22;68429;50.958;3.592;2023-04-24T01:05:52;8.90;99.90
54168;DHT22;68429;50.958;3.592;2023-04-24T01:08:19;8.80;99.90
54168;DHT22;68429;50.958;3.592;2023-04-24T01:10:47;8.90;99.90
54168;DHT22;68429;50.958;3.592;2023-04-24T01:13:13;8.90;99.90
54168;DHT22;68429;50.958;3.592;2023-04-24T01:15:39;8.80;99.90
54168;DHT22;68429;50.958;3.592;2023-04-24T01:18:05;8.70;99.90
54168;DHT22;68429;50.958;3.592;2023-04-24T01:20:31;8.80;99.90
54168;DHT22;68429;50.958;3.592;2023-04-24T01:22:58;8.70;99.90
54168;DHT22;68429;50.958;3.592;2023-04-24T01:25:25;8.60;99.90
54168;DHT22;68429;50.958;3.592;2023-04-24T01:27:52;8.60;99.90
54168;DHT22;68429;50.958;3.592;2023-04-24T01:30:18;8.70;99.90
54168;DHT22;68429;50.958;3.592;2023-04-24T01:32:44;8.70;99.90
54168;DHT22;68429;50.958;3.592;2023-04-24T01:35:11;8.60;99.90
54168;DHT22;68429;50.958;3.592;2023-04-24T01:37:36;8.60;99.90
54168;DHT22;68429;50.958;3.592;2023-04-24T01:40:06;8.60;99.90
54168;DHT22;68429;50.958;3.592;2023-04-24T01:42:32;8.60;99.90
54168;DHT22;68429;50.958;3.592;2023-04-24T01:44:58;8.60;99.90
54168;DHT22;68429;50.958;3.592;2023-04-24T01:47:25;8.60;99.90
54168;DHT22;68429;50.958;3.592;2023-04-24T01:49:51;8.60;99.90
54168;DHT22;68429;50.958;3.592;2023-04-24T01:52:17;8.60;99.90
54168;DHT22;68429;50.958;3.592;2023-04-24T01:54:44;8.60;99.90
54168;DHT22;68429;50.958;3.592;2023-04-24T01:57:10;8.60;99.90
54168;DHT22;68429;50.958;3.592;2023-04-24T01:59:36;8.60;99.90
54168;DHT22;68429;50.958;3.592;2023-04-24T02:02:02;8.50;99.90
54168;DHT22;68429;50.958;3.592;2023-04-24T02:04:28;8.60;99.90
54168;DHT22;68429;50.958;3.592;2023-04-24T02:06:54;8.50;99.90
54168;DHT22;68429;50.958;3.592;2023-04-24T02:09:20;8.50;99.90
54168;DHT22;68429;50.958;3.592;2023-04-24T02:11:46;8.50;99.90
54168;DHT22;68429;50.958;3.592;2023-04-24T02:14:11;8.50;99.90
54168;DHT22;68429;50.958;3.592;2023-04-24T02:16:37;8.50;99.90
54168;DHT22;68429;50.958;3.592;2023-04-24T02:19:03;8.40;99.90
54168;DHT22;68429;50.958;3.592;2023-04-24T02:21:29;8.40;99.90
54168;DHT22;68429;50.958;3.592;2023-04-24T02:23:56;8.50;99.90
54168;DHT22;68429;50.958;3.592;2023-04-24T02:26:22;8.50;99.90
54168;DHT22;68429;50.958;3.592;2023-04-24T02:28:48;8.50;99.90
54168;DHT22;68429;50.958;3.592;2023-04-24T02:31:14;8.50;99.90
54168;DHT22;68429;50.958;3.592;2023-04-24T02:33:39;8.50;99.90
54168;DHT22;68429;50.958;3.592;2023-04-24T02:36:05;8.50;99.90
54168;DHT22;68429;50.958;3.592;2023-04-24T02:38:31;8.50;99.90
54168;DHT22;68429;50.958;3.592;2023-04-24T02:40:57;8.50;99.90
54168;DHT22;68429;50.958;3.592;2023-04-24T02:43:22;8.60;99.90
54168;DHT22;68429;50.958;3.592;2023-04-24T02:45:48;8.60;99.90
54168;DHT22;68429;50.958;3.592;2023-04-24T02:48:14;8.60;99.90
54168;DHT22;68429;50.958;3.592;2023-04-24T02:50:40;8.60;99.90
54168;DHT22;68429;50.958;3.592;2023-04-24T02:53:06;8.60;99.90
54168;DHT22;68429;50.958;3.592;2023-04-24T02:55:32;8.60;99.90
54168;DHT22;68429;50.958;3.592;2023-04-24T02:57:57;8.60;99.90
54168;DHT22;68429;50.958;3.592;2023-04-24T03:00:23;8.70;99.90
54168;DHT22;68429;50.958;3.592;2023-04-24T03:02:49;8.80;99.90
54168;DHT22;68429;50.958;3.592;2023-04-24T03:05:15;8.80;99.90
54168;DHT22;68429;50.958;3.592;2023-04-24T03:07:41;8.70;99.90
54168;DHT22;68429;50.958;3.592;2023-04-24T03:10:07;8.70;99.90
54168;DHT22;68429;50.958;3.592;2023-04-24T03:12:33;8.80;99.90
54168;DHT22;68429;50.958;3.592;2023-04-24T03:14:59;8.70;99.90
54168;DHT22;68429;50.958;3.592;2023-04-24T03:17:24;8.70;99.90
54168;DHT22;68429;50.958;3.592;2023-04-24T03:19:50;8.70;99.90
54168;DHT22;68429;50.958;3.592;2023-04-24T03:22:16;8.70;99.90
54168;DHT22;68429;50.958;3.592;2023-04-24T03:24:41;8.70;99.90
54168;DHT22;68429;50.958;3.592;2023-04-24T03:27:07;8.70;99.90
54168;DHT22;68429;50.958;3.592;2023-04-24T03:29:33;8.70;99.90
54168;DHT22;68429;50.958;3.592;2023-04-24T03:31:58;8.70;99.90
54168;DHT22;68429;50.958;3.592;2023-04-24T03:34:24;8.60;99.90
54168;DHT22;68429;50.958;3.592;2023-04-24T03:36:50;8.50;99.90
54168;DHT22;68429;50.958;3.592;2023-04-24T03:39:16;8.50;99.90
54168;DHT22;68429;50.958;3.592;2023-04-24T03:41:41;8.60;99.90
54168;DHT22;68429;50.958;3.592;2023-04-24T03:44:07;8.60;99.90
54168;DHT22;68429;50.958;3.592;2023-04-24T03:46:33;8.50;99.90
54168;DHT22;68429;50.958;3.592;2023-04-24T03:48:58;8.60;99.90
54168;DHT22;68429;50.958;3.592;2023-04-24T03:51:24;8.50;99.90
54168;DHT22;68429;50.958;3.592;2023-04-24T03:53:50;8.60;99.90
54168;DHT22;68429;50.958;3.592;2023-04-24T03:56:16;8.50;99.90
54168;DHT22;68429;50.958;3.592;2023-04-24T03:58:42;8.50;99.90
54168;DHT22;68429;50.958;3.592;2023-04-24T04:01:08;8.50;99.90
54168;DHT22;68429;50.958;3.592;2023-04-24T04:03:33;8.50;99.90
54168;DHT22;68429;50.958;3.592;2023-04-24T04:05:59;8.40;99.90
54168;DHT22;68429;50.958;3.592;2023-04-24T04:08:25;8.40;99.90
54168;DHT22;68429;50.958;3.592;2023-04-24T04:10:50;8.40;99.90
54168;DHT22;68429;50.958;3.592;2023-04-24T04:13:16;8.40;99.90
54168;DHT22;68429;50.958;3.592;2023-04-24T04:15:42;8.40;99.90
54168;DHT22;68429;50.958;3.592;2023-04-24T04:18:07;8.40;99.90
54168;DHT22;68429;50.958;3.592;2023-04-24T04:20:33;8.40;99.90
54168;DHT22;68429;50.958;3.592;2023-04-24T04:22:59;8.40;99.90
54168;DHT22;68429;50.958;3.592;2023-04-24T04:25:25;8.30;99.90
54168;DHT22;68429;50.958;3.592;2023-04-24T04:27:51;8.30;99.90
54168;DHT22;68429;50.958;3.592;2023-04-24T04:30:17;8.30;99.90
54168;DHT22;68429;50.958;3.592;2023-04-24T04:32:43;8.30;99.90
54168;DHT22;68429;50.958;3.592;2023-04-24T04:35:09;8.30;99.90
54168;DHT22;68429;50.958;3.592;2023-04-24T04:37:35;8.30;99.90
54168;DHT22;68429;50.958;3.592;2023-04-24T04:40:02;8.30;99.90
54168;DHT22;68429;50.958;3.592;2023-04-24T04:42:36;8.30;99.90
54168;DHT22;68429;50.958;3.592;2023-04-24T04:45:06;8.30;99.90
54168;DHT22;68429;50.958;3.592;2023-04-24T04:47:34;8.20;99.90
54168;DHT22;68429;50.958;3.592;2023-04-24T04:50:00;8.20;99.90
54168;DHT22;68429;50.958;3.592;2023-04-24T04:52:26;8.20;99.90
54168;DHT22;68429;50.958;3.592;2023-04-24T04:54:52;8.20;99.90
54168;DHT22;68429;50.958;3.592;2023-04-24T04:57:18;8.30;99.90
54168;DHT22;68429;50.958;3.592;2023-04-24T04:59:43;8.30;99.90
54168;DHT22;68429;50.958;3.592;2023-04-24T05:02:09;8.30;99.90
54168;DHT22;68429;50.958;3.592;2023-04-24T05:04:35;8.30;99.90
54168;DHT22;68429;50.958;3.592;2023-04-24T05:07:00;8.40;99.90
54168;DHT22;68429;50.958;3.592;2023-04-24T05:09:26;8.40;99.90
54168;DHT22;68429;50.958;3.592;2023-04-24T05:11:54;8.30;99.90
54168;DHT22;68429;50.958;3.592;2023-04-24T05:14:20;8.40;99.90
54168;DHT22;68429;50.958;3.592;2023-04-24T05:16:46;8.40;99.90
54168;DHT22;68429;50.958;3.592;2023-04-24T05:19:12;8.40;99.90
54168;DHT22;68429;50.958;3.592;2023-04-24T05:21:39;8.40;99.90
54168;DHT22;68429;50.958;3.592;2023-04-24T05:24:05;8.40;99.90
54168;DHT22;68429;50.958;3.592;2023-04-24T05:26:31;8.40;99.90
54168;DHT22;68429;50.958;3.592;2023-04-24T05:28:57;8.40;99.90
54168;DHT22;68429;50.958;3.592;2023-04-24T05:31:23;8.50;99.90
54168;DHT22;68429;50.958;3.592;2023-04-24T05:33:48;8.50;99.90
54168;DHT22;68429;50.958;3.592;2023-04-24T05:36:14;8.50;99.90
54168;DHT22;68429;50.958;3.592;2023-04-24T05:38:40;8.50;99.90
54168;DHT22;68429;50.958;3.592;2023-04-24T05:41:05;8.50;99.90
54168;DHT22;68429;50.958;3.592;2023-04-24T05:43:31;8.50;99.90
54168;DHT22;68429;50.958;3.592;2023-04-24T05:45:57;8.50;99.90
54168;DHT22;68429;50.958;3.592;2023-04-24T05:48:22;8.60;99.90
54168;DHT22;68429;50.958;3.592;2023-04-24T05:50:48;8.60;99.90
54168;DHT22;68429;50.958;3.592;2023-04-24T05:53:14;8.60;99.90
54168;DHT22;68429;50.958;3.592;2023-04-24T05:55:40;8.70;99.90
54168;DHT22;68429;50.958;3.592;2023-04-24T05:58:05;8.70;99.90
54168;DHT22;68429;50.958;3.592;2023-04-24T06:00:31;8.70;99.90
54168;DHT22;68429;50.958;3.592;2023-04-24T06:02:57;8.70;99.90
54168;DHT22;68429;50.958;3.592;2023-04-24T06:05:24;8.70;99.90
54168;DHT22;68429;50.958;3.592;2023-04-24T06:07:50;8.80;99.90
54168;DHT22;68429;50.958;3.592;2023-04-24T06:10:16;8.80;99.90
54168;DHT22;68429;50.958;3.592;2023-04-24T06:12:41;8.90;99.90
54168;DHT22;68429;50.958;3.592;2023-04-24T06:15:07;8.90;99.90
54168;DHT22;68429;50.958;3.592;2023-04-24T06:17:33;8.90;99.90
54168;DHT22;68429;50.958;3.592;2023-04-24T06:19:59;9.00;99.90
54168;DHT22;68429;50.958;3.592;2023-04-24T06:22:24;9.00;99.90
54168;DHT22;68429;50.958;3.592;2023-04-24T06:24:50;9.10;99.90
54168;DHT22;68429;50.958;3.592;2023-04-24T06:27:16;9.10;99.90
54168;DHT22;68429;50.958;3.592;2023-04-24T06:29:41;9.20;99.90
54168;DHT22;68429;50.958;3.592;2023-04-24T06:32:07;9.20;99.90
54168;DHT22;68429;50.958;3.592;2023-04-24T06:34:33;9.30;99.90
54168;DHT22;68429;50.958;3.592;2023-04-24T06:37:00;9.40;99.90
54168;DHT22;68429;50.958;3.592;2023-04-24T06:39:25;9.50;99.90
54168;DHT22;68429;50.958;3.592;2023-04-24T06:41:51;9.40;99.90
54168;DHT22;68429;50.958;3.592;2023-04-24T06:44:16;9.50;99.90
54168;DHT22;68429;50.958;3.592;2023-04-24T06:46:42;9.50;99.90
54168;DHT22;68429;50.958;3.592;2023-04-24T06:49:08;9.50;99.90
54168;DHT22;68429;50.958;3.592;2023-04-24T06:51:34;9.40;99.90
54168;DHT22;68429;50.958;3.592;2023-04-24T06:53:59;9.30;99.90
54168;DHT22;68429;50.958;3.592;2023-04-24T06:56:26;9.20;99.90
54168;DHT22;68429;50.958;3.592;2023-04-24T06:58:51;9.00;99.90
54168;DHT22;68429;50.958;3.592;2023-04-24T07:01:17;9.00;99.90
54168;DHT22;68429;50.958;3.592;2023-04-24T07:03:43;8.90;99.90
54168;DHT22;68429;50.958;3.592;2023-04-24T07:06:09;8.90;99.90
54168;DHT22;68429;50.958;3.592;2023-04-24T07:08:38;9.00;99.90
54168;DHT22;68429;50.958;3.592;2023-04-24T07:11:04;9.20;99.90
54168;DHT22;68429;50.958;3.592;2023-04-24T07:13:31;9.10;99.90
54168;DHT22;68429;50.958;3.592;2023-04-24T07:15:56;9.20;99.90
54168;DHT22;68429;50.958;3.592;2023-04-24T07:18:22;9.30;99.90
54168;DHT22;68429;50.958;3.592;2023-04-24T07:20:48;9.30;99.90
54168;DHT22;68429;50.958;3.592;2023-04-24T07:23:16;9.30;99.90
54168;DHT22;68429;50.958;3.592;2023-04-24T07:25:42;9.30;99.90
54168;DHT22;68429;50.958;3.592;2023-04-24T07:28:08;9.40;99.90
54168;DHT22;68429;50.958;3.592;2023-04-24T07:30:33;9.60;99.90
54168;DHT22;68429;50.958;3.592;2023-04-24T07:32:59;9.70;99.90
54168;DHT22;68429;50.958;3.592;2023-04-24T07:35:26;9.70;99.90
54168;DHT22;68429;50.958;3.592;2023-04-24T07:37:53;9.70;99.90
54168;DHT22;68429;50.958;3.592;2023-04-24T07:40:19;9.60;99.90
54168;DHT22;68429;50.958;3.592;2023-04-24T07:42:45;10.00;99.90
54168;DHT22;68429;50.958;3.592;2023-04-24T07:45:15;10.80;99.90
54168;DHT22;68429;50.958;3.592;2023-04-24T07:47:43;11.40;99.90
54168;DHT22;68429;50.958;3.592;2023-04-24T07:50:11;11.50;99.90
54168;DHT22;68429;50.958;3.592;2023-04-24T07:52:37;11.60;99.90
54168;DHT22;68429;50.958;3.592;2023-04-24T07:55:02;11.80;99.90
54168;DHT22;68429;50.958;3.592;2023-04-24T07:57:29;12.10;99.90
54168;DHT22;68429;50.958;3.592;2023-04-24T07:59:54;12.40;99.90
54168;DHT22;68429;50.958;3.592;2023-04-24T08:02:20;12.40;99.90
54168;DHT22;68429;50.958;3.592;2023-04-24T08:04:54;12.10;99.90
54168;DHT22;68429;50.958;3.592;2023-04-24T08:07:20;11.90;99.90
54168;DHT22;68429;50.958;3.592;2023-04-24T08:09:46;11.70;99.90
54168;DHT22;68429;50.958;3.592;2023-04-24T08:12:11;11.60;99.90
54168;DHT22;68429;50.958;3.592;2023-04-24T08:14:37;11.50;99.90
54168;DHT22;68429;50.958;3.592;2023-04-24T08:17:03;11.50;99.90
54168;DHT22;68429;50.958;3.592;2023-04-24T08:19:29;11.50;99.90
54168;DHT22;68429;50.958;3.592;2023-04-24T08:21:57;11.20;99.90
54168;DHT22;68429;50.958;3.592;2023-04-24T08:24:23;10.90;99.90
54168;DHT22;68429;50.958;3.592;2023-04-24T08:26:48;10.60;99.90
54168;DHT22;68429;50.958;3.592;2023-04-24T08:29:19;11.40;99.90
54168;DHT22;68429;50.958;3.592;2023-04-24T08:31:45;12.00;99.90
54168;DHT22;68429;50.958;3.592;2023-04-24T08:34:10;12.50;99.90
54168;DHT22;68429;50.958;3.592;2023-04-24T08:36:37;12.40;99.90
54168;DHT22;68429;50.958;3.592;2023-04-24T08:39:02;12.10;99.90
54168;DHT22;68429;50.958;3.592;2023-04-24T08:41:28;12.00;99.90
54168;DHT22;68429;50.958;3.592;2023-04-24T08:43:55;11.80;99.90
54168;DHT22;68429;50.958;3.592;2023-04-24T08:46:24;11.70;99.90
54168;DHT22;68429;50.958;3.592;2023-04-24T08:48:50;11.40;99.90
54168;DHT22;68429;50.958;3.592;2023-04-24T08:51:17;11.20;99.90
54168;DHT22;68429;50.958;3.592;2023-04-24T08:53:44;11.30;99.90
54168;DHT22;68429;50.958;3.592;2023-04-24T08:56:11;11.70;99.90
54168;DHT22;68429;50.958;3.592;2023-04-24T08:58:38;11.60;99.90
54168;DHT22;68429;50.958;3.592;2023-04-24T09:01:04;11.40;99.90
54168;DHT22;68429;50.958;3.592;2023-04-24T09:03:31;11.20;99.90
54168;DHT22;68429;50.958;3.592;2023-04-24T09:05:58;11.00;99.90
54168;DHT22;68429;50.958;3.592;2023-04-24T09:08:25;11.00;99.90
54168;DHT22;68429;50.958;3.592;2023-04-24T09:10:52;10.90;99.90
54168;DHT22;68429;50.958;3.592;2023-04-24T09:13:19;11.10;99.90
54168;DHT22;68429;50.958;3.592;2023-04-24T09:15:45;11.30;99.90
54168;DHT22;68429;50.958;3.592;2023-04-24T09:18:11;11.20;99.90
54168;DHT22;68429;50.958;3.592;2023-04-24T09:20:59;11.10;99.90
54168;DHT22;68429;50.958;3.592;2023-04-24T09:23:30;11.30;99.90
54168;DHT22;68429;50.958;3.592;2023-04-24T09:25:56;11.40;99.90
54168;DHT22;68429;50.958;3.592;2023-04-24T09:28:30;11.50;99.90
54168;DHT22;68429;50.958;3.592;2023-04-24T09:31:12;11.80;99.90
54168;DHT22;68429;50.958;3.592;2023-04-24T09:33:39;11.80;99.90
54168;DHT22;68429;50.958;3.592;2023-04-24T09:36:05;12.10;99.90
54168;DHT22;68429;50.958;3.592;2023-04-24T09:38:36;12.30;99.90
54168;DHT22;68429;50.958;3.592;2023-04-24T09:41:04;12.40;99.90
54168;DHT22;68429;50.958;3.592;2023-04-24T09:43:30;12.60;99.90
54168;DHT22;68429;50.958;3.592;2023-04-24T09:45:57;12.80;99.90
54168;DHT22;68429;50.958;3.592;2023-04-24T09:48:31;12.70;99.90
54168;DHT22;68429;50.958;3.592;2023-04-24T09:50:57;12.30;99.90
54168;DHT22;68429;50.958;3.592;2023-04-24T09:53:27;12.60;99.90
54168;DHT22;68429;50.958;3.592;2023-04-24T09:55:53;12.80;99.90
54168;DHT22;68429;50.958;3.592;2023-04-24T09:58:25;12.90;99.90
54168;DHT22;68429;50.958;3.592;2023-04-24T10:00:54;12.90;99.90
54168;DHT22;68429;50.958;3.592;2023-04-24T10:03:20;12.70;99.90
54168;DHT22;68429;50.958;3.592;2023-04-24T10:05:46;12.60;99.90
54168;DHT22;68429;50.958;3.592;2023-04-24T10:08:13;12.30;99.90
54168;DHT22;68429;50.958;3.592;2023-04-24T10:10:41;12.50;99.90
54168;DHT22;68429;50.958;3.592;2023-04-24T10:13:08;12.40;99.90
54168;DHT22;68429;50.958;3.592;2023-04-24T10:15:34;12.20;99.90
54168;DHT22;68429;50.958;3.592;2023-04-24T10:18:00;12.40;99.90
54168;DHT22;68429;50.958;3.592;2023-04-24T10:20:29;12.60;99.90
54168;DHT22;68429;50.958;3.592;2023-04-24T10:22:57;12.90;99.90
54168;DHT22;68429;50.958;3.592;2023-04-24T10:25:25;13.00;99.90
54168;DHT22;68429;50.958;3.592;2023-04-24T10:27:52;12.70;99.90
54168;DHT22;68429;50.958;3.592;2023-04-24T10:30:19;12.40;99.90
54168;DHT22;68429;50.958;3.592;2023-04-24T10:32:45;12.30;99.90
54168;DHT22;68429;50.958;3.592;2023-04-24T10:35:15;12.50;99.90
54168;DHT22;68429;50.958;3.592;2023-04-24T10:37:49;12.90;99.90
54168;DHT22;68429;50.958;3.592;2023-04-24T10:40:24;12.50;99.90
54168;DHT22;68429;50.958;3.592;2023-04-24T10:42:52;12.10;99.90
54168;DHT22;68429;50.958;3.592;2023-04-24T10:45:20;12.10;99.90
54168;DHT22;68429;50.958;3.592;2023-04-24T10:47:56;12.10;99.90
54168;DHT22;68429;50.958;3.592;2023-04-24T10:50:22;12.30;99.90
54168;DHT22;68429;50.958;3.592;2023-04-24T10:52:48;12.30;99.90
54168;DHT22;68429;50.958;3.592;2023-04-24T10:55:29;12.50;99.90
54168;DHT22;68429;50.958;3.592;2023-04-24T10:58:03;12.70;99.90
54168;DHT22;68429;50.958;3.592;2023-04-24T11:00:29;12.90;99.90
54168;DHT22;68429;50.958;3.592;2023-04-24T11:02:55;12.80;99.90
54168;DHT22;68429;50.958;3.592;2023-04-24T11:05:22;13.00;99.90
54168;DHT22;68429;50.958;3.592;2023-04-24T11:08:16;13.20;99.90
54168;DHT22;68429;50.958;3.592;2023-04-24T11:10:54;13.40;99.90
54168;DHT22;68429;50.958;3.592;2023-04-24T11:13:23;13.90;99.90
54168;DHT22;68429;50.958;3.592;2023-04-24T11:16:14;14.30;99.90
54168;DHT22;68429;50.958;3.592;2023-04-24T11:18:42;14.90;99.90
54168;DHT22;68429;50.958;3.592;2023-04-24T11:21:18;15.30;99.90
54168;DHT22;68429;50.958;3.592;2023-04-24T11:23:45;15.90;99.90
54168;DHT22;68429;50.958;3.592;2023-04-24T11:26:14;16.20;99.90
54168;DHT22;68429;50.958;3.592;2023-04-24T11:28:49;16.50;99.90
54168;DHT22;68429;50.958;3.592;2023-04-24T11:31:38;15.80;99.90
54168;DHT22;68429;50.958;3.592;2023-04-24T11:34:08;15.20;99.90
54168;DHT22;68429;50.958;3.592;2023-04-24T11:36:35;15.60;99.90
54168;DHT22;68429;50.958;3.592;2023-04-24T11:39:01;16.40;99.90
54168;DHT22;68429;50.958;3.592;2023-04-24T11:41:28;16.70;99.90
54168;DHT22;68429;50.958;3.592;2023-04-24T11:43:55;17.70;98.30
54168;DHT22;68429;50.958;3.592;2023-04-24T11:46:22;18.50;98.20
54168;DHT22;68429;50.958;3.592;2023-04-24T11:48:47;19.40;96.60
54168;DHT22;68429;50.958;3.592;2023-04-24T11:51:14;19.20;96.40
54168;DHT22;68429;50.958;3.592;2023-04-24T11:53:40;17.90;95.80
54168;DHT22;68429;50.958;3.592;2023-04-24T11:56:06;16.80;96.70
54168;DHT22;68429;50.958;3.592;2023-04-24T11:58:38;15.90;98.10
54168;DHT22;68429;50.958;3.592;2023-04-24T12:01:05;14.70;99.40
54168;DHT22;68429;50.958;3.592;2023-04-24T12:03:31;14.00;99.90
54168;DHT22;68429;50.958;3.592;2023-04-24T12:06:10;14.00;99.90
54168;DHT22;68429;50.958;3.592;2023-04-24T12:08:37;15.20;99.90
54168;DHT22;68429;50.958;3.592;2023-04-24T12:11:05;17.20;99.30
54168;DHT22;68429;50.958;3.592;2023-04-24T12:13:33;17.60;97.30
54168;DHT22;68429;50.958;3.592;2023-04-24T12:15:58;16.50;97.50
54168;DHT22;68429;50.958;3.592;2023-04-24T12:18:24;15.20;99.50
54168;DHT22;68429;50.958;3.592;2023-04-24T12:20:51;15.70;99.20
54168;DHT22;68429;50.958;3.592;2023-04-24T12:23:16;16.70;97.80
54168;DHT22;68429;50.958;3.592;2023-04-24T12:26:00;17.90;96.80
54168;DHT22;68429;50.958;3.592;2023-04-24T12:28:35;17.50;96.00
54168;DHT22;68429;50.958;3.592;2023-04-24T12:31:01;18.10;96.50
54168;DHT22;68429;50.958;3.592;2023-04-24T12:33:27;19.60;95.80
54168;DHT22;68429;50.958;3.592;2023-04-24T12:35:53;20.00;93.40
54168;DHT22;68429;50.958;3.592;2023-04-24T12:38:25;21.70;91.20
54168;DHT22;68429;50.958;3.592;2023-04-24T12:41:12;20.40;91.60
54168;DHT22;68429;50.958;3.592;2023-04-24T12:43:38;20.70;90.90
54168;DHT22;68429;50.958;3.592;2023-04-24T12:46:04;20.40;90.80
54168;DHT22;68429;50.958;3.592;2023-04-24T12:48:30;19.90;91.40
54168;DHT22;68429;50.958;3.592;2023-04-24T12:50:59;20.10;91.90
54168;DHT22;68429;50.958;3.592;2023-04-24T12:53:28;19.70;91.40
54168;DHT22;68429;50.958;3.592;2023-04-24T12:55:57;20.10;91.30
54168;DHT22;68429;50.958;3.592;2023-04-24T12:58:23;20.60;91.70
54168;DHT22;68429;50.958;3.592;2023-04-24T13:00:49;22.20;87.90
54168;DHT22;68429;50.958;3.592;2023-04-24T13:03:15;22.30;86.50
54168;DHT22;68429;50.958;3.592;2023-04-24T13:05:42;20.50;88.70
54168;DHT22;68429;50.958;3.592;2023-04-24T13:08:08;20.40;87.10
54168;DHT22;68429;50.958;3.592;2023-04-24T13:10:34;20.40;86.60
54168;DHT22;68429;50.958;3.592;2023-04-24T13:13:00;20.40;86.30
54168;DHT22;68429;50.958;3.592;2023-04-24T13:15:26;19.40;88.30
54168;DHT22;68429;50.958;3.592;2023-04-24T13:17:51;20.10;87.20
54168;DHT22;68429;50.958;3.592;2023-04-24T13:20:17;20.40;87.40
54168;DHT22;68429;50.958;3.592;2023-04-24T13:22:43;20.30;86.60
54168;DHT22;68429;50.958;3.592;2023-04-24T13:25:09;18.80;88.60
54168;DHT22;68429;50.958;3.592;2023-04-24T13:27:37;17.70;90.20
54168;DHT22;68429;50.958;3.592;2023-04-24T13:30:03;18.00;91.00
54168;DHT22;68429;50.958;3.592;2023-04-24T13:32:29;19.50;90.80
54168;DHT22;68429;50.958;3.592;2023-04-24T13:34:55;20.10;86.90
54168;DHT22;68429;50.958;3.592;2023-04-24T13:37:21;21.00;85.90
54168;DHT22;68429;50.958;3.592;2023-04-24T13:39:48;21.00;85.40
54168;DHT22;68429;50.958;3.592;2023-04-24T13:42:14;21.40;86.50
54168;DHT22;68429;50.958;3.592;2023-04-24T13:44:40;19.80;84.50
54168;DHT22;68429;50.958;3.592;2023-04-24T13:47:05;19.30;87.00
54168;DHT22;68429;50.958;3.592;2023-04-24T13:49:31;19.90;87.50
54168;DHT22;68429;50.958;3.592;2023-04-24T13:51:57;20.60;87.40
54168;DHT22;68429;50.958;3.592;2023-04-24T13:54:23;21.80;82.60
54168;DHT22;68429;50.958;3.592;2023-04-24T13:56:51;20.30;82.80
54168;DHT22;68429;50.958;3.592;2023-04-24T13:59:17;18.30;87.00
54168;DHT22;68429;50.958;3.592;2023-04-24T14:01:43;17.10;89.70
54168;DHT22;68429;50.958;3.592;2023-04-24T14:04:10;17.30;90.70
54168;DHT22;68429;50.958;3.592;2023-04-24T14:06:36;17.40;90.70
54168;DHT22;68429;50.958;3.592;2023-04-24T14:09:02;18.60;89.50
54168;DHT22;68429;50.958;3.592;2023-04-24T14:11:28;19.70;89.80
54168;DHT22;68429;50.958;3.592;2023-04-24T14:13:55;19.90;84.10
54168;DHT22;68429;50.958;3.592;2023-04-24T14:16:23;19.10;85.00
54168;DHT22;68429;50.958;3.592;2023-04-24T14:18:50;18.40;87.30
54168;DHT22;68429;50.958;3.592;2023-04-24T14:21:16;17.60;87.60
54168;DHT22;68429;50.958;3.592;2023-04-24T14:23:41;17.30;90.30
54168;DHT22;68429;50.958;3.592;2023-04-24T14:26:07;18.80;88.10
54168;DHT22;68429;50.958;3.592;2023-04-24T14:28:33;18.90;88.70
54168;DHT22;68429;50.958;3.592;2023-04-24T14:30:59;19.50;87.90
54168;DHT22;68429;50.958;3.592;2023-04-24T14:33:25;18.90;86.30
54168;DHT22;68429;50.958;3.592;2023-04-24T14:35:50;18.70;88.40
54168;DHT22;68429;50.958;3.592;2023-04-24T14:38:16;18.50;87.70
54168;DHT22;68429;50.958;3.592;2023-04-24T14:40:42;18.10;87.90
54168;DHT22;68429;50.958;3.592;2023-04-24T14:43:07;17.60;90.20
54168;DHT22;68429;50.958;3.592;2023-04-24T14:45:33;17.20;89.90
54168;DHT22;68429;50.958;3.592;2023-04-24T14:47:59;16.80;90.40
54168;DHT22;68429;50.958;3.592;2023-04-24T14:50:24;16.10;91.10
54168;DHT22;68429;50.958;3.592;2023-04-24T14:52:54;16.20;92.00
54168;DHT22;68429;50.958;3.592;2023-04-24T14:55:20;16.20;91.30
54168;DHT22;68429;50.958;3.592;2023-04-24T14:57:46;16.00;91.80
54168;DHT22;68429;50.958;3.592;2023-04-24T15:00:13;16.00;91.90
54168;DHT22;68429;50.958;3.592;2023-04-24T15:02:38;15.60;92.20
54168;DHT22;68429;50.958;3.592;2023-04-24T15:05:07;15.20;92.50
54168;DHT22;68429;50.958;3.592;2023-04-24T15:07:33;14.60;92.40
54168;DHT22;68429;50.958;3.592;2023-04-24T15:10:01;14.40;93.50
54168;DHT22;68429;50.958;3.592;2023-04-24T15:12:26;14.30;92.80
54168;DHT22;68429;50.958;3.592;2023-04-24T15:14:54;13.90;92.90
54168;DHT22;68429;50.958;3.592;2023-04-24T15:17:19;13.90;93.80
54168;DHT22;68429;50.958;3.592;2023-04-24T15:19:45;13.80;94.40
54168;DHT22;68429;50.958;3.592;2023-04-24T15:22:11;13.80;94.10
54168;DHT22;68429;50.958;3.592;2023-04-24T15:24:36;13.80;94.40
54168;DHT22;68429;50.958;3.592;2023-04-24T15:27:02;13.80;94.60
54168;DHT22;68429;50.958;3.592;2023-04-24T15:29:29;13.60;94.60
54168;DHT22;68429;50.958;3.592;2023-04-24T15:31:54;13.50;95.30
54168;DHT22;68429;50.958;3.592;2023-04-24T15:34:20;13.40;95.20
54168;DHT22;68429;50.958;3.592;2023-04-24T15:36:46;13.50;95.20